sensor_id;sensor_type;location;lat;lon;timestamp;pressure;altitude;pressure_sealevel;temperature;humidity
70370;BME280;57790;51.356;-2.906;2023-03-25T00:01:33;100107.19;;;11.23;100.00
70370;BME280;57790;51.356;-2.906;2023-03-25T00:04:33;100109.47;;;11.26;100.00
70370;BME280;57790;51.356;-2.906;2023-03-25T00:07:34;100105.91;;;11.34;100.00
70370;BME280;57790;51.356;-2.906;2023-03-25T00:10:35;100115.44;;;11.28;100.00
70370;BME280;57790;51.356;-2.906;2023-03-25T00:13:36;100110.97;;;11.14;100.00
70370;BME280;57790;51.356;-2.906;2023-03-25T00:16:36;100127.03;;;11.13;100.00
70370;BME280;57790;51.356;-2.906;2023-03-25T00:19:37;100133.09;;;11.21;100.00
70370;BME280;57790;51.356;-2.906;2023-03-25T00:22:38;100140.88;;;11.23;100.00
70370;BME280;57790;51.356;-2.906;2023-03-25T00:25:43;100143.69;;;11.21;100.00
70370;BME280;57790;51.356;-2.906;2023-03-25T00:28:44;100137.75;;;11.19;100.00
70370;BME280;57790;51.356;-2.906;2023-03-25T00:31:44;100150.19;;;11.19;100.00
70370;BME280;57790;51.356;-2.906;2023-03-25T00:34:45;100153.50;;;11.21;100.00
70370;BME280;57790;51.356;-2.906;2023-03-25T00:37:50;100149.81;;;11.22;100.00
70370;BME280;57790;51.356;-2.906;2023-03-25T00:41:20;100135.91;;;11.20;100.00
70370;BME280;57790;51.356;-2.906;2023-03-25T00:44:28;100140.03;;;11.22;100.00
70370;BME280;57790;51.356;-2.906;2023-03-25T00:47:29;100136.56;;;11.22;100.00
70370;BME280;57790;51.356;-2.906;2023-03-25T00:50:30;100133.91;;;11.22;100.00
70370;BME280;57790;51.356;-2.906;2023-03-25T00:53:30;100144.88;;;11.19;100.00
70370;BME280;57790;51.356;-2.906;2023-03-25T00:56:31;100144.53;;;11.22;100.00
70370;BME280;57790;51.356;-2.906;2023-03-25T00:59:31;100134.91;;;11.21;100.00
70370;BME280;57790;51.356;-2.906;2023-03-25T01:02:32;100138.03;;;11.24;100.00
70370;BME280;57790;51.356;-2.906;2023-03-25T01:05:32;100137.56;;;11.21;100.00
70370;BME280;57790;51.356;-2.906;2023-03-25T01:08:33;100121.47;;;11.22;100.00
70370;BME280;57790;51.356;-2.906;2023-03-25T01:11:34;100132.25;;;11.21;100.00
70370;BME280;57790;51.356;-2.906;2023-03-25T01:14:36;100131.88;;;11.24;100.00
70370;BME280;57790;51.356;-2.906;2023-03-25T01:17:37;100142.41;;;11.17;100.00
70370;BME280;57790;51.356;-2.906;2023-03-25T01:20:38;100153.56;;;11.13;100.00
70370;BME280;57790;51.356;-2.906;2023-03-25T01:23:39;100150.19;;;11.19;100.00
70370;BME280;57790;51.356;-2.906;2023-03-25T01:26:41;100139.94;;;11.16;100.00
70370;BME280;57790;51.356;-2.906;2023-03-25T01:29:42;100147.72;;;11.17;100.00
70370;BME280;57790;51.356;-2.906;2023-03-25T01:32:43;100158.53;;;11.16;100.00
70370;BME280;57790;51.356;-2.906;2023-03-25T01:35:44;100166.13;;;11.19;100.00
70370;BME280;57790;51.356;-2.906;2023-03-25T01:38:44;100151.72;;;11.13;100.00
70370;BME280;57790;51.356;-2.906;2023-03-25T01:41:48;100148.91;;;11.15;100.00
70370;BME280;57790;51.356;-2.906;2023-03-25T01:48:00;100167.94;;;11.18;100.00
70370;BME280;57790;51.356;-2.906;2023-03-25T01:51:13;100161.81;;;11.18;100.00
70370;BME280;57790;51.356;-2.906;2023-03-25T01:54:14;100167.63;;;11.13;100.00
70370;BME280;57790;51.356;-2.906;2023-03-25T01:57:19;100182.41;;;11.16;100.00
70370;BME280;57790;51.356;-2.906;2023-03-25T02:00:21;100187.22;;;11.12;100.00
70370;BME280;57790;51.356;-2.906;2023-03-25T02:03:23;100183.91;;;11.10;100.00
70370;BME280;57790;51.356;-2.906;2023-03-25T02:06:26;100168.81;;;11.11;100.00
70370;BME280;57790;51.356;-2.906;2023-03-25T02:09:28;100171.31;;;11.12;100.00
70370;BME280;57790;51.356;-2.906;2023-03-25T02:12:29;100160.22;;;11.09;100.00
70370;BME280;57790;51.356;-2.906;2023-03-25T02:15:39;100162.44;;;11.05;100.00
70370;BME280;57790;51.356;-2.906;2023-03-25T02:39:58;100186.47;;;11.03;100.00
70370;BME280;57790;51.356;-2.906;2023-03-25T02:43:11;100178.88;;;11.00;100.00
70370;BME280;57790;51.356;-2.906;2023-03-25T02:46:16;100189.97;;;11.04;100.00
70370;BME280;57790;51.356;-2.906;2023-03-25T02:49:22;100188.50;;;11.01;100.00
70370;BME280;57790;51.356;-2.906;2023-03-25T02:52:34;100191.97;;;11.02;100.00
70370;BME280;57790;51.356;-2.906;2023-03-25T02:55:37;100192.31;;;10.99;100.00
70370;BME280;57790;51.356;-2.906;2023-03-25T02:58:41;100200.44;;;10.97;100.00
70370;BME280;57790;51.356;-2.906;2023-03-25T03:01:43;100205.28;;;10.94;100.00
70370;BME280;57790;51.356;-2.906;2023-03-25T03:04:49;100216.91;;;10.93;100.00
70370;BME280;57790;51.356;-2.906;2023-03-25T03:07:54;100219.19;;;10.96;100.00
70370;BME280;57790;51.356;-2.906;2023-03-25T03:24:15;100231.19;;;10.84;100.00
70370;BME280;57790;51.356;-2.906;2023-03-25T03:27:37;100233.16;;;10.90;100.00
70370;BME280;57790;51.356;-2.906;2023-03-25T03:30:46;100251.72;;;10.90;100.00
70370;BME280;57790;51.356;-2.906;2023-03-25T03:34:00;100245.97;;;10.86;100.00
70370;BME280;57790;51.356;-2.906;2023-03-25T03:37:03;100243.81;;;10.82;100.00
70370;BME280;57790;51.356;-2.906;2023-03-25T03:40:10;100253.25;;;10.84;100.00
70370;BME280;57790;51.356;-2.906;2023-03-25T03:43:16;100251.94;;;10.80;100.00
70370;BME280;57790;51.356;-2.906;2023-03-25T03:46:22;100242.16;;;10.81;100.00
70370;BME280;57790;51.356;-2.906;2023-03-25T03:49:28;100244.53;;;10.76;100.00
70370;BME280;57790;51.356;-2.906;2023-03-25T03:52:45;100252.31;;;10.77;100.00
70370;BME280;57790;51.356;-2.906;2023-03-25T03:55:53;100245.81;;;10.80;100.00
70370;BME280;57790;51.356;-2.906;2023-03-25T03:58:58;100238.88;;;10.79;100.00
70370;BME280;57790;51.356;-2.906;2023-03-25T04:02:01;100243.34;;;10.78;100.00
70370;BME280;57790;51.356;-2.906;2023-03-25T04:05:07;100242.72;;;10.76;100.00
70370;BME280;57790;51.356;-2.906;2023-03-25T04:08:46;100251.94;;;10.80;100.00
70370;BME280;57790;51.356;-2.906;2023-03-25T04:11:54;100253.03;;;10.71;100.00
70370;BME280;57790;51.356;-2.906;2023-03-25T04:14:58;100247.00;;;10.77;100.00
70370;BME280;57790;51.356;-2.906;2023-03-25T04:17:59;100256.78;;;10.77;100.00
70370;BME280;57790;51.356;-2.906;2023-03-25T04:21:01;100260.63;;;10.74;100.00
70370;BME280;57790;51.356;-2.906;2023-03-25T04:24:01;100265.09;;;10.73;100.00
70370;BME280;57790;51.356;-2.906;2023-03-25T04:27:02;100257.16;;;10.73;100.00
70370;BME280;57790;51.356;-2.906;2023-03-25T04:30:07;100280.22;;;10.65;100.00
70370;BME280;57790;51.356;-2.906;2023-03-25T04:33:08;100277.56;;;10.65;100.00
70370;BME280;57790;51.356;-2.906;2023-03-25T04:36:09;100278.84;;;10.69;100.00
70370;BME280;57790;51.356;-2.906;2023-03-25T04:39:10;100268.25;;;10.69;100.00
70370;BME280;57790;51.356;-2.906;2023-03-25T04:42:11;100285.81;;;10.70;100.00
70370;BME280;57790;51.356;-2.906;2023-03-25T04:45:13;100278.22;;;10.67;100.00
70370;BME280;57790;51.356;-2.906;2023-03-25T04:48:22;100280.22;;;10.65;100.00
70370;BME280;57790;51.356;-2.906;2023-03-25T04:51:23;100270.31;;;10.59;100.00
70370;BME280;57790;51.356;-2.906;2023-03-25T04:54:24;100288.00;;;10.66;100.00
70370;BME280;57790;51.356;-2.906;2023-03-25T04:57:25;100292.66;;;10.64;100.00
70370;BME280;57790;51.356;-2.906;2023-03-25T05:00:25;100306.72;;;10.65;100.00
70370;BME280;57790;51.356;-2.906;2023-03-25T05:03:26;100301.06;;;10.68;100.00
70370;BME280;57790;51.356;-2.906;2023-03-25T05:06:26;100313.38;;;10.61;100.00
70370;BME280;57790;51.356;-2.906;2023-03-25T05:09:28;100323.97;;;10.61;100.00
70370;BME280;57790;51.356;-2.906;2023-03-25T05:12:29;100342.19;;;10.64;100.00
70370;BME280;57790;51.356;-2.906;2023-03-25T05:15:31;100344.00;;;10.63;100.00
70370;BME280;57790;51.356;-2.906;2023-03-25T05:18:34;100341.53;;;10.62;100.00
70370;BME280;57790;51.356;-2.906;2023-03-25T05:21:37;100353.31;;;10.59;100.00
70370;BME280;57790;51.356;-2.906;2023-03-25T05:24:37;100364.91;;;10.58;100.00
70370;BME280;57790;51.356;-2.906;2023-03-25T05:27:38;100351.78;;;10.65;100.00
70370;BME280;57790;51.356;-2.906;2023-03-25T05:30:41;100368.03;;;10.62;100.00
70370;BME280;57790;51.356;-2.906;2023-03-25T05:33:42;100370.16;;;10.66;100.00
70370;BME280;57790;51.356;-2.906;2023-03-25T05:36:43;100385.06;;;10.67;100.00
70370;BME280;57790;51.356;-2.906;2023-03-25T05:39:43;100402.16;;;10.65;100.00
70370;BME280;57790;51.356;-2.906;2023-03-25T05:42:45;100385.91;;;10.68;100.00
70370;BME280;57790;51.356;-2.906;2023-03-25T05:45:45;100376.81;;;10.62;100.00
70370;BME280;57790;51.356;-2.906;2023-03-25T05:48:46;100377.47;;;10.64;100.00
70370;BME280;57790;51.356;-2.906;2023-03-25T05:51:46;100375.34;;;10.60;100.00
70370;BME280;57790;51.356;-2.906;2023-03-25T05:54:48;100381.94;;;10.64;100.00
70370;BME280;57790;51.356;-2.906;2023-03-25T05:57:49;100384.94;;;10.61;100.00
70370;BME280;57790;51.356;-2.906;2023-03-25T06:00:50;100381.81;;;10.57;100.00
70370;BME280;57790;51.356;-2.906;2023-03-25T06:03:51;100389.44;;;10.60;100.00
70370;BME280;57790;51.356;-2.906;2023-03-25T06:06:51;100382.66;;;10.58;100.00
70370;BME280;57790;51.356;-2.906;2023-03-25T06:09:52;100400.38;;;10.57;100.00
70370;BME280;57790;51.356;-2.906;2023-03-25T06:12:53;100414.13;;;10.53;100.00
70370;BME280;57790;51.356;-2.906;2023-03-25T06:15:54;100408.31;;;10.57;100.00
70370;BME280;57790;51.356;-2.906;2023-03-25T06:18:56;100408.16;;;10.59;100.00
70370;BME280;57790;51.356;-2.906;2023-03-25T06:21:58;100412.94;;;10.55;100.00
70370;BME280;57790;51.356;-2.906;2023-03-25T06:24:59;100423.22;;;10.58;100.00
70370;BME280;57790;51.356;-2.906;2023-03-25T06:28:00;100410.16;;;10.57;100.00
70370;BME280;57790;51.356;-2.906;2023-03-25T06:31:02;100426.88;;;10.57;100.00
70370;BME280;57790;51.356;-2.906;2023-03-25T06:34:08;100427.53;;;10.59;100.00
70370;BME280;57790;51.356;-2.906;2023-03-25T06:37:09;100436.81;;;10.55;100.00
70370;BME280;57790;51.356;-2.906;2023-03-25T06:40:10;100430.84;;;10.61;100.00
70370;BME280;57790;51.356;-2.906;2023-03-25T06:43:10;100438.97;;;10.60;100.00
70370;BME280;57790;51.356;-2.906;2023-03-25T06:46:11;100445.75;;;10.62;100.00
70370;BME280;57790;51.356;-2.906;2023-03-25T06:49:11;100453.88;;;10.61;100.00
70370;BME280;57790;51.356;-2.906;2023-03-25T06:52:12;100447.41;;;10.63;100.00
70370;BME280;57790;51.356;-2.906;2023-03-25T06:55:12;100460.66;;;10.63;100.00
70370;BME280;57790;51.356;-2.906;2023-03-25T06:58:13;100463.47;;;10.62;100.00
70370;BME280;57790;51.356;-2.906;2023-03-25T07:01:13;100445.75;;;10.62;100.00
70370;BME280;57790;51.356;-2.906;2023-03-25T07:04:14;100464.13;;;10.64;100.00
70370;BME280;57790;51.356;-2.906;2023-03-25T07:07:14;100482.50;;;10.65;100.00
70370;BME280;57790;51.356;-2.906;2023-03-25T07:10:15;100475.72;;;10.63;100.00
70370;BME280;57790;51.356;-2.906;2023-03-25T07:13:15;100461.47;;;10.64;100.00
70370;BME280;57790;51.356;-2.906;2023-03-25T07:16:16;100470.44;;;10.63;100.00
70370;BME280;57790;51.356;-2.906;2023-03-25T07:19:16;100477.22;;;10.65;100.00
70370;BME280;57790;51.356;-2.906;2023-03-25T07:22:16;100487.16;;;10.63;100.00
70370;BME280;57790;51.356;-2.906;2023-03-25T07:25:17;100481.84;;;10.63;100.00
70370;BME280;57790;51.356;-2.906;2023-03-25T07:28:18;100499.59;;;10.63;100.00
70370;BME280;57790;51.356;-2.906;2023-03-25T07:31:18;100503.53;;;10.67;100.00
70370;BME280;57790;51.356;-2.906;2023-03-25T07:34:19;100508.69;;;10.68;100.00
70370;BME280;57790;51.356;-2.906;2023-03-25T07:37:19;100485.81;;;10.67;100.00
70370;BME280;57790;51.356;-2.906;2023-03-25T07:40:20;100504.53;;;10.66;100.00
70370;BME280;57790;51.356;-2.906;2023-03-25T07:43:20;100515.16;;;10.66;100.00
70370;BME280;57790;51.356;-2.906;2023-03-25T07:46:21;100519.97;;;10.62;100.00
70370;BME280;57790;51.356;-2.906;2023-03-25T07:49:21;100512.50;;;10.66;100.00
70370;BME280;57790;51.356;-2.906;2023-03-25T07:52:22;100510.31;;;10.69;100.00
70370;BME280;57790;51.356;-2.906;2023-03-25T07:55:22;100514.81;;;10.69;100.00
70370;BME280;57790;51.356;-2.906;2023-03-25T07:58:22;100535.69;;;10.72;100.00
70370;BME280;57790;51.356;-2.906;2023-03-25T08:01:23;100525.09;;;10.72;100.00
70370;BME280;57790;51.356;-2.906;2023-03-25T08:04:23;100542.66;;;10.73;100.00
70370;BME280;57790;51.356;-2.906;2023-03-25T08:07:24;100541.66;;;10.74;100.00
70370;BME280;57790;51.356;-2.906;2023-03-25T08:10:24;100549.78;;;10.72;100.00
70370;BME280;57790;51.356;-2.906;2023-03-25T08:13:25;100555.09;;;10.72;100.00
70370;BME280;57790;51.356;-2.906;2023-03-25T08:16:25;100553.09;;;10.75;100.00
70370;BME280;57790;51.356;-2.906;2023-03-25T08:19:26;100571.13;;;10.79;100.00
70370;BME280;57790;51.356;-2.906;2023-03-25T08:22:26;100553.88;;;10.83;100.00
70370;BME280;57790;51.356;-2.906;2023-03-25T08:25:27;100562.53;;;10.85;100.00
70370;BME280;57790;51.356;-2.906;2023-03-25T08:28:28;100577.59;;;10.85;100.00
70370;BME280;57790;51.356;-2.906;2023-03-25T08:31:30;100581.75;;;10.87;100.00
70370;BME280;57790;51.356;-2.906;2023-03-25T08:34:34;100587.72;;;10.89;100.00
70370;BME280;57790;51.356;-2.906;2023-03-25T08:37:38;100585.53;;;10.93;100.00
70370;BME280;57790;51.356;-2.906;2023-03-25T08:40:41;100609.06;;;10.96;100.00
70370;BME280;57790;51.356;-2.906;2023-03-25T08:43:42;100621.97;;;10.99;100.00
70370;BME280;57790;51.356;-2.906;2023-03-25T08:46:43;100623.81;;;10.98;100.00
70370;BME280;57790;51.356;-2.906;2023-03-25T08:49:43;100637.75;;;11.00;100.00
70370;BME280;57790;51.356;-2.906;2023-03-25T08:52:44;100645.53;;;10.94;100.00
70370;BME280;57790;51.356;-2.906;2023-03-25T08:55:45;100662.63;;;10.99;100.00
70370;BME280;57790;51.356;-2.906;2023-03-25T08:58:45;100671.41;;;10.92;100.00
70370;BME280;57790;51.356;-2.906;2023-03-25T09:01:46;100670.72;;;11.06;100.00
70370;BME280;57790;51.356;-2.906;2023-03-25T09:04:47;100674.69;;;11.10;100.00
70370;BME280;57790;51.356;-2.906;2023-03-25T09:07:48;100675.34;;;11.12;100.00
70370;BME280;57790;51.356;-2.906;2023-03-25T09:10:48;100680.50;;;11.14;100.00
70370;BME280;57790;51.356;-2.906;2023-03-25T09:13:49;100686.81;;;11.13;100.00
70370;BME280;57790;51.356;-2.906;2023-03-25T09:16:49;100687.16;;;11.18;100.00
70370;BME280;57790;51.356;-2.906;2023-03-25T09:19:50;100702.56;;;11.06;100.00
70370;BME280;57790;51.356;-2.906;2023-03-25T09:22:50;100712.34;;;11.06;100.00
70370;BME280;57790;51.356;-2.906;2023-03-25T09:25:51;100709.19;;;11.10;100.00
70370;BME280;57790;51.356;-2.906;2023-03-25T09:28:52;100715.31;;;11.11;100.00
70370;BME280;57790;51.356;-2.906;2023-03-25T09:31:54;100709.38;;;11.17;100.00
70370;BME280;57790;51.356;-2.906;2023-03-25T09:34:57;100726.13;;;11.17;100.00
70370;BME280;57790;51.356;-2.906;2023-03-25T09:37:57;100736.53;;;11.27;100.00
70370;BME280;57790;51.356;-2.906;2023-03-25T09:41:01;100731.56;;;11.24;100.00
70370;BME280;57790;51.356;-2.906;2023-03-25T09:44:26;100732.56;;;11.23;100.00
70370;BME280;57790;51.356;-2.906;2023-03-25T09:47:28;100743.84;;;11.25;100.00
70370;BME280;57790;51.356;-2.906;2023-03-25T09:50:34;100746.19;;;11.20;100.00
70370;BME280;57790;51.356;-2.906;2023-03-25T09:53:46;100748.66;;;11.21;100.00
70370;BME280;57790;51.356;-2.906;2023-03-25T09:56:50;100760.78;;;11.32;100.00
70370;BME280;57790;51.356;-2.906;2023-03-25T09:59:53;100771.53;;;11.39;100.00
70370;BME280;57790;51.356;-2.906;2023-03-25T10:03:01;100782.00;;;11.32;100.00
70370;BME280;57790;51.356;-2.906;2023-03-25T10:09:35;100790.59;;;11.42;100.00
70370;BME280;57790;51.356;-2.906;2023-03-25T10:16:12;100803.72;;;11.52;100.00
70370;BME280;57790;51.356;-2.906;2023-03-25T10:22:54;100812.50;;;11.52;100.00
70370;BME280;57790;51.356;-2.906;2023-03-25T10:26:20;100822.13;;;11.53;100.00
70370;BME280;57790;51.356;-2.906;2023-03-25T10:32:37;100832.41;;;11.56;100.00
70370;BME280;57790;51.356;-2.906;2023-03-25T10:35:41;100836.91;;;11.64;100.00
70370;BME280;57790;51.356;-2.906;2023-03-25T10:38:50;100837.22;;;11.77;100.00
70370;BME280;57790;51.356;-2.906;2023-03-25T10:42:00;100834.09;;;11.74;100.00
70370;BME280;57790;51.356;-2.906;2023-03-25T10:45:02;100841.41;;;11.72;100.00
70370;BME280;57790;51.356;-2.906;2023-03-25T10:51:14;100847.03;;;11.77;100.00
70370;BME280;57790;51.356;-2.906;2023-03-25T10:54:16;100832.25;;;11.82;100.00
70370;BME280;57790;51.356;-2.906;2023-03-25T10:57:28;100859.50;;;11.84;100.00
70370;BME280;57790;51.356;-2.906;2023-03-25T11:00:28;100859.97;;;11.96;100.00
70370;BME280;57790;51.356;-2.906;2023-03-25T11:03:32;100869.13;;;12.02;100.00
70370;BME280;57790;51.356;-2.906;2023-03-25T11:06:36;100860.97;;;12.03;100.00
70370;BME280;57790;51.356;-2.906;2023-03-25T11:09:39;100863.13;;;12.08;100.00
70370;BME280;57790;51.356;-2.906;2023-03-25T11:12:41;100884.53;;;12.14;100.00
70370;BME280;57790;51.356;-2.906;2023-03-25T11:15:46;100873.22;;;12.12;100.00
70370;BME280;57790;51.356;-2.906;2023-03-25T11:18:46;100880.53;;;12.18;100.00
70370;BME280;57790;51.356;-2.906;2023-03-25T11:21:52;100879.38;;;12.13;100.00
70370;BME280;57790;51.356;-2.906;2023-03-25T11:25:02;100883.19;;;12.18;100.00
70370;BME280;57790;51.356;-2.906;2023-03-25T11:28:18;100883.19;;;12.10;100.00
70370;BME280;57790;51.356;-2.906;2023-03-25T11:31:22;100876.88;;;12.19;100.00
70370;BME280;57790;51.356;-2.906;2023-03-25T11:34:24;100875.53;;;12.32;100.00
70370;BME280;57790;51.356;-2.906;2023-03-25T11:37:28;100885.50;;;12.30;100.00
70370;BME280;57790;51.356;-2.906;2023-03-25T11:40:30;100892.31;;;12.32;100.00
70370;BME280;57790;51.356;-2.906;2023-03-25T11:43:36;100908.44;;;12.31;100.00
70370;BME280;57790;51.356;-2.906;2023-03-25T11:46:41;100913.06;;;12.45;100.00
70370;BME280;57790;51.356;-2.906;2023-03-25T11:49:47;100909.06;;;12.41;100.00
70370;BME280;57790;51.356;-2.906;2023-03-25T11:52:52;100910.41;;;12.37;100.00
70370;BME280;57790;51.356;-2.906;2023-03-25T11:55:55;100910.72;;;12.42;100.00
70370;BME280;57790;51.356;-2.906;2023-03-25T11:58:58;100906.56;;;12.47;100.00
70370;BME280;57790;51.356;-2.906;2023-03-25T12:02:20;100922.63;;;12.62;100.00
70370;BME280;57790;51.356;-2.906;2023-03-25T12:05:20;100920.97;;;12.61;100.00
70370;BME280;57790;51.356;-2.906;2023-03-25T12:08:21;100917.28;;;12.70;100.00
70370;BME280;57790;51.356;-2.906;2023-03-25T12:17:58;100928.19;;;12.84;100.00
70370;BME280;57790;51.356;-2.906;2023-03-25T12:24:46;100928.19;;;12.84;100.00
70370;BME280;57790;51.356;-2.906;2023-03-25T12:28:18;100935.19;;;12.85;100.00
70370;BME280;57790;51.356;-2.906;2023-03-25T12:38:11;100933.84;;;12.89;100.00
70370;BME280;57790;51.356;-2.906;2023-03-25T12:44:55;100935.81;;;12.87;100.00
70370;BME280;57790;51.356;-2.906;2023-03-25T12:48:10;100935.00;;;12.86;100.00
70370;BME280;57790;51.356;-2.906;2023-03-25T12:58:38;100937.13;;;12.99;100.00
70370;BME280;57790;51.356;-2.906;2023-03-25T13:05:22;100927.28;;;12.99;100.00
70370;BME280;57790;51.356;-2.906;2023-03-25T13:08:37;100935.44;;;13.06;100.00
70370;BME280;57790;51.356;-2.906;2023-03-25T13:15:01;100917.81;;;13.05;100.00
70370;BME280;57790;51.356;-2.906;2023-03-25T13:18:17;100919.94;;;13.09;100.00
70370;BME280;57790;51.356;-2.906;2023-03-25T13:21:25;100918.56;;;13.14;100.00
70370;BME280;57790;51.356;-2.906;2023-03-25T13:24:38;100918.75;;;13.12;100.00
70370;BME280;57790;51.356;-2.906;2023-03-25T13:27:42;100919.06;;;13.17;100.00
70370;BME280;57790;51.356;-2.906;2023-03-25T13:30:44;100914.72;;;13.16;100.00
70370;BME280;57790;51.356;-2.906;2023-03-25T13:33:59;100918.41;;;13.23;100.00
70370;BME280;57790;51.356;-2.906;2023-03-25T13:40:45;100920.91;;;13.17;100.00
70370;BME280;57790;51.356;-2.906;2023-03-25T13:44:31;100919.59;;;13.21;100.00
70370;BME280;57790;51.356;-2.906;2023-03-25T13:47:38;100911.41;;;13.22;100.00
70370;BME280;57790;51.356;-2.906;2023-03-25T13:50:42;100913.53;;;13.27;100.00
70370;BME280;57790;51.356;-2.906;2023-03-25T14:13:30;100905.03;;;13.31;100.00
70370;BME280;57790;51.356;-2.906;2023-03-25T14:16:34;100885.88;;;13.36;100.00
70370;BME280;57790;51.356;-2.906;2023-03-25T14:19:38;100889.53;;;13.35;100.00
70370;BME280;57790;51.356;-2.906;2023-03-25T14:22:41;100884.22;;;13.35;100.00
70370;BME280;57790;51.356;-2.906;2023-03-25T14:25:45;100876.50;;;13.40;100.00
70370;BME280;57790;51.356;-2.906;2023-03-25T14:28:47;100871.38;;;13.38;100.00
70370;BME280;57790;51.356;-2.906;2023-03-25T14:32:04;100861.00;;;13.44;100.00
70370;BME280;57790;51.356;-2.906;2023-03-25T14:38:53;100870.13;;;13.49;100.00
70370;BME280;57790;51.356;-2.906;2023-03-25T14:45:36;100875.28;;;13.51;100.00
70370;BME280;57790;51.356;-2.906;2023-03-25T14:48:42;100864.53;;;13.59;100.00
70370;BME280;57790;51.356;-2.906;2023-03-25T14:51:49;100855.44;;;13.53;100.00
70370;BME280;57790;51.356;-2.906;2023-03-25T14:54:51;100862.25;;;13.56;100.00
70370;BME280;57790;51.356;-2.906;2023-03-25T14:58:10;100853.06;;;13.58;100.00
70370;BME280;57790;51.356;-2.906;2023-03-25T15:01:17;100855.56;;;13.60;100.00
70370;BME280;57790;51.356;-2.906;2023-03-25T15:05:31;100853.06;;;13.58;100.00
70370;BME280;57790;51.356;-2.906;2023-03-25T15:08:19;100847.56;;;13.60;100.00
70370;BME280;57790;51.356;-2.906;2023-03-25T15:11:34;100848.41;;;13.60;100.00
70370;BME280;57790;51.356;-2.906;2023-03-25T15:14:41;100846.72;;;13.59;100.00
70370;BME280;57790;51.356;-2.906;2023-03-25T15:17:44;100845.75;;;13.60;100.00
70370;BME280;57790;51.356;-2.906;2023-03-25T15:20:45;100842.53;;;13.65;100.00
70370;BME280;57790;51.356;-2.906;2023-03-25T15:23:47;100837.19;;;13.65;100.00
70370;BME280;57790;51.356;-2.906;2023-03-25T15:26:49;100839.69;;;13.66;100.00
70370;BME280;57790;51.356;-2.906;2023-03-25T15:29:54;100828.19;;;13.66;100.00
70370;BME280;57790;51.356;-2.906;2023-03-25T15:33:19;100834.34;;;13.66;100.00
70370;BME280;57790;51.356;-2.906;2023-03-25T15:39:56;100835.47;;;13.72;100.00
70370;BME280;57790;51.356;-2.906;2023-03-25T15:52:37;100823.72;;;13.81;100.00
70370;BME280;57790;51.356;-2.906;2023-03-25T15:55:54;100824.09;;;13.78;100.00
70370;BME280;57790;51.356;-2.906;2023-03-25T15:59:06;100816.47;;;13.75;100.00
70370;BME280;57790;51.356;-2.906;2023-03-25T16:05:46;100816.94;;;13.79;100.00
70370;BME280;57790;51.356;-2.906;2023-03-25T16:08:48;100809.75;;;13.79;100.00
70370;BME280;57790;51.356;-2.906;2023-03-25T16:11:49;100802.13;;;13.76;100.00
70370;BME280;57790;51.356;-2.906;2023-03-25T16:14:51;100807.56;;;13.83;100.00
70370;BME280;57790;51.356;-2.906;2023-03-25T16:17:52;100806.53;;;13.84;100.00
70370;BME280;57790;51.356;-2.906;2023-03-25T16:20:56;100802.03;;;13.84;100.00
70370;BME280;57790;51.356;-2.906;2023-03-25T16:24:02;100803.03;;;13.83;100.00
70370;BME280;57790;51.356;-2.906;2023-03-25T16:27:24;100797.53;;;13.85;100.00
70370;BME280;57790;51.356;-2.906;2023-03-25T16:33:39;100786.81;;;13.93;100.00
70370;BME280;57790;51.356;-2.906;2023-03-25T16:36:45;100786.16;;;13.91;100.00
70370;BME280;57790;51.356;-2.906;2023-03-25T16:39:54;100781.03;;;13.89;100.00
70370;BME280;57790;51.356;-2.906;2023-03-25T16:43:05;100784.31;;;13.91;100.00
70370;BME280;57790;51.356;-2.906;2023-03-25T16:46:09;100785.97;;;13.92;100.00
70370;BME280;57790;51.356;-2.906;2023-03-25T16:49:24;100780.47;;;13.94;100.00
70370;BME280;57790;51.356;-2.906;2023-03-25T16:52:28;100772.91;;;13.97;100.00
70370;BME280;57790;51.356;-2.906;2023-03-25T16:55:46;100765.94;;;13.96;100.00
70370;BME280;57790;51.356;-2.906;2023-03-25T16:59:05;100768.41;;;13.98;100.00
70370;BME280;57790;51.356;-2.906;2023-03-25T17:02:30;100763.91;;;13.98;100.00
70370;BME280;57790;51.356;-2.906;2023-03-25T17:05:59;100768.22;;;13.99;100.00
70370;BME280;57790;51.356;-2.906;2023-03-25T17:09:02;100766.19;;;14.02;100.00
70370;BME280;57790;51.356;-2.906;2023-03-25T17:12:15;100765.19;;;14.03;100.00
70370;BME280;57790;51.356;-2.906;2023-03-25T17:15:17;100750.88;;;14.04;100.00
70370;BME280;57790;51.356;-2.906;2023-03-25T17:18:19;100738.19;;;14.06;100.00
70370;BME280;57790;51.356;-2.906;2023-03-25T17:21:31;100744.69;;;14.03;100.00
70370;BME280;57790;51.356;-2.906;2023-03-25T17:24:39;100740.22;;;14.04;100.00
70370;BME280;57790;51.356;-2.906;2023-03-25T17:27:41;100736.53;;;14.05;100.00
70370;BME280;57790;51.356;-2.906;2023-03-25T17:30:45;100732.22;;;14.04;100.00
70370;BME280;57790;51.356;-2.906;2023-03-25T17:33:56;100731.34;;;14.03;100.00
70370;BME280;57790;51.356;-2.906;2023-03-25T17:36:59;100724.03;;;14.05;100.00
70370;BME280;57790;51.356;-2.906;2023-03-25T17:40:05;100722.53;;;14.03;100.00
70370;BME280;57790;51.356;-2.906;2023-03-25T17:43:17;100725.88;;;14.05;100.00
70370;BME280;57790;51.356;-2.906;2023-03-25T17:46:24;100721.72;;;14.02;100.00
70370;BME280;57790;51.356;-2.906;2023-03-25T17:49:25;100729.53;;;14.04;100.00
70370;BME280;57790;51.356;-2.906;2023-03-25T17:52:25;100718.22;;;14.02;100.00
70370;BME280;57790;51.356;-2.906;2023-03-25T17:55:27;100720.88;;;14.02;100.00
70370;BME280;57790;51.356;-2.906;2023-03-25T17:58:28;100715.72;;;14.00;100.00
70370;BME280;57790;51.356;-2.906;2023-03-25T18:01:30;100714.91;;;13.99;100.00